sensor_id;sensor_type;location;lat;lon;timestamp;P1;durP1;ratioP1;P2;durP2;ratioP2
52041;SDS011;38052;45.944;13.624;2024-03-06T00:01:45;14.90;;;6.43;;
52041;SDS011;38052;45.944;13.624;2024-03-06T00:04:11;11.90;;;5.25;;
52041;SDS011;38052;45.944;13.624;2024-03-06T00:06:37;11.50;;;5.35;;
52041;SDS011;38052;45.944;13.624;2024-03-06T00:09:04;12.02;;;4.70;;
52041;SDS011;38052;45.944;13.624;2024-03-06T00:11:30;10.73;;;5.07;;
52041;SDS011;38052;45.944;13.624;2024-03-06T00:13:57;14.48;;;5.32;;
52041;SDS011;38052;45.944;13.624;2024-03-06T00:16:23;16.27;;;6.40;;
52041;SDS011;38052;45.944;13.624;2024-03-06T00:18:49;7.95;;;4.18;;
52041;SDS011;38052;45.944;13.624;2024-03-06T00:21:16;12.25;;;5.35;;
52041;SDS011;38052;45.944;13.624;2024-03-06T00:23:43;14.55;;;6.20;;
52041;SDS011;38052;45.944;13.624;2024-03-06T00:26:11;15.65;;;5.63;;
52041;SDS011;38052;45.944;13.624;2024-03-06T00:28:38;13.98;;;4.75;;
52041;SDS011;38052;45.944;13.624;2024-03-06T00:31:05;18.75;;;5.43;;
52041;SDS011;38052;45.944;13.624;2024-03-06T00:33:31;9.95;;;5.00;;
52041;SDS011;38052;45.944;13.624;2024-03-06T00:35:58;11.80;;;4.07;;
52041;SDS011;38052;45.944;13.624;2024-03-06T00:38:24;15.18;;;4.63;;
52041;SDS011;38052;45.944;13.624;2024-03-06T00:40:51;10.05;;;4.40;;
52041;SDS011;38052;45.944;13.624;2024-03-06T00:43:17;11.35;;;4.47;;
52041;SDS011;38052;45.944;13.624;2024-03-06T00:45:43;13.20;;;4.88;;
52041;SDS011;38052;45.944;13.624;2024-03-06T00:48:10;9.82;;;4.00;;
52041;SDS011;38052;45.944;13.624;2024-03-06T00:50:36;10.13;;;3.95;;
52041;SDS011;38052;45.944;13.624;2024-03-06T00:53:02;16.63;;;4.95;;
52041;SDS011;38052;45.944;13.624;2024-03-06T00:55:29;9.13;;;3.70;;
52041;SDS011;38052;45.944;13.624;2024-03-06T00:57:56;6.55;;;3.53;;
52041;SDS011;38052;45.944;13.624;2024-03-06T01:00:22;8.65;;;3.78;;
52041;SDS011;38052;45.944;13.624;2024-03-06T01:02:49;8.82;;;3.58;;
52041;SDS011;38052;45.944;13.624;2024-03-06T01:05:15;10.35;;;4.55;;
52041;SDS011;38052;45.944;13.624;2024-03-06T01:07:42;9.98;;;4.38;;
52041;SDS011;38052;45.944;13.624;2024-03-06T01:10:08;6.85;;;4.72;;
52041;SDS011;38052;45.944;13.624;2024-03-06T01:12:34;7.90;;;4.90;;
52041;SDS011;38052;45.944;13.624;2024-03-06T01:15:01;9.95;;;4.75;;
52041;SDS011;38052;45.944;13.624;2024-03-06T01:17:28;12.13;;;4.72;;
52041;SDS011;38052;45.944;13.624;2024-03-06T01:19:55;12.35;;;4.97;;
52041;SDS011;38052;45.944;13.624;2024-03-06T01:22:22;9.02;;;5.03;;
52041;SDS011;38052;45.944;13.624;2024-03-06T01:24:48;9.57;;;4.07;;
52041;SDS011;38052;45.944;13.624;2024-03-06T01:27:16;9.02;;;4.75;;
52041;SDS011;38052;45.944;13.624;2024-03-06T01:29:42;8.63;;;4.20;;
52041;SDS011;38052;45.944;13.624;2024-03-06T01:32:09;9.93;;;3.88;;
52041;SDS011;38052;45.944;13.624;2024-03-06T01:34:38;11.20;;;4.78;;
52041;SDS011;38052;45.944;13.624;2024-03-06T01:37:04;8.77;;;5.00;;
52041;SDS011;38052;45.944;13.624;2024-03-06T01:39:30;8.95;;;4.68;;
52041;SDS011;38052;45.944;13.624;2024-03-06T01:41:58;7.47;;;3.92;;
52041;SDS011;38052;45.944;13.624;2024-03-06T01:44:24;11.98;;;4.28;;
52041;SDS011;38052;45.944;13.624;2024-03-06T01:46:50;12.30;;;4.53;;
52041;SDS011;38052;45.944;13.624;2024-03-06T01:49:17;8.70;;;4.15;;
52041;SDS011;38052;45.944;13.624;2024-03-06T01:51:44;8.27;;;3.90;;
52041;SDS011;38052;45.944;13.624;2024-03-06T01:54:13;9.48;;;4.97;;
52041;SDS011;38052;45.944;13.624;2024-03-06T01:56:43;7.28;;;3.45;;
52041;SDS011;38052;45.944;13.624;2024-03-06T01:59:11;9.40;;;5.25;;
52041;SDS011;38052;45.944;13.624;2024-03-06T02:01:39;19.73;;;5.15;;
52041;SDS011;38052;45.944;13.624;2024-03-06T02:04:08;9.25;;;4.30;;
52041;SDS011;38052;45.944;13.624;2024-03-06T02:06:35;7.95;;;4.07;;
52041;SDS011;38052;45.944;13.624;2024-03-06T02:09:01;12.57;;;4.75;;
52041;SDS011;38052;45.944;13.624;2024-03-06T02:11:28;8.82;;;4.55;;
52041;SDS011;38052;45.944;13.624;2024-03-06T02:13:54;11.70;;;4.63;;
52041;SDS011;38052;45.944;13.624;2024-03-06T02:16:21;11.30;;;5.38;;
52041;SDS011;38052;45.944;13.624;2024-03-06T02:18:53;8.80;;;4.68;;
52041;SDS011;38052;45.944;13.624;2024-03-06T02:21:24;8.70;;;4.43;;
52041;SDS011;38052;45.944;13.624;2024-03-06T02:23:50;14.20;;;4.63;;
52041;SDS011;38052;45.944;13.624;2024-03-06T02:26:20;12.40;;;4.68;;
52041;SDS011;38052;45.944;13.624;2024-03-06T02:28:47;9.93;;;4.60;;
52041;SDS011;38052;45.944;13.624;2024-03-06T02:31:14;9.25;;;5.35;;
52041;SDS011;38052;45.944;13.624;2024-03-06T02:33:46;6.47;;;4.10;;
52041;SDS011;38052;45.944;13.624;2024-03-06T02:36:16;8.48;;;4.82;;
52041;SDS011;38052;45.944;13.624;2024-03-06T02:38:43;9.35;;;5.20;;
52041;SDS011;38052;45.944;13.624;2024-03-06T02:41:10;12.75;;;4.45;;
52041;SDS011;38052;45.944;13.624;2024-03-06T02:43:36;13.15;;;4.38;;
52041;SDS011;38052;45.944;13.624;2024-03-06T02:46:03;11.18;;;4.57;;
52041;SDS011;38052;45.944;13.624;2024-03-06T02:48:29;11.77;;;5.28;;
52041;SDS011;38052;45.944;13.624;2024-03-06T02:50:56;11.77;;;5.13;;
52041;SDS011;38052;45.944;13.624;2024-03-06T02:53:23;19.95;;;5.10;;
52041;SDS011;38052;45.944;13.624;2024-03-06T02:55:50;9.48;;;5.25;;
52041;SDS011;38052;45.944;13.624;2024-03-06T02:58:17;12.15;;;6.00;;
52041;SDS011;38052;45.944;13.624;2024-03-06T03:00:43;9.32;;;5.10;;
52041;SDS011;38052;45.944;13.624;2024-03-06T03:03:10;13.35;;;5.40;;
52041;SDS011;38052;45.944;13.624;2024-03-06T03:05:39;10.93;;;5.57;;
52041;SDS011;38052;45.944;13.624;2024-03-06T03:08:05;9.43;;;5.60;;
52041;SDS011;38052;45.944;13.624;2024-03-06T03:10:32;10.13;;;5.82;;
52041;SDS011;38052;45.944;13.624;2024-03-06T03:13:02;12.00;;;6.57;;
52041;SDS011;38052;45.944;13.624;2024-03-06T03:15:30;13.60;;;7.13;;
52041;SDS011;38052;45.944;13.624;2024-03-06T03:17:56;11.32;;;6.10;;
52041;SDS011;38052;45.944;13.624;2024-03-06T03:20:22;13.02;;;5.60;;
52041;SDS011;38052;45.944;13.624;2024-03-06T03:22:49;10.98;;;6.88;;
52041;SDS011;38052;45.944;13.624;2024-03-06T03:25:15;9.90;;;6.55;;
52041;SDS011;38052;45.944;13.624;2024-03-06T03:27:42;13.35;;;6.63;;
52041;SDS011;38052;45.944;13.624;2024-03-06T03:30:09;9.77;;;5.43;;
52041;SDS011;38052;45.944;13.624;2024-03-06T03:32:36;11.35;;;5.60;;
52041;SDS011;38052;45.944;13.624;2024-03-06T03:35:04;13.65;;;6.40;;
52041;SDS011;38052;45.944;13.624;2024-03-06T03:37:30;10.88;;;6.28;;
52041;SDS011;38052;45.944;13.624;2024-03-06T03:39:57;11.80;;;6.20;;
52041;SDS011;38052;45.944;13.624;2024-03-06T03:42:23;10.32;;;7.43;;
52041;SDS011;38052;45.944;13.624;2024-03-06T03:44:49;10.32;;;6.75;;
52041;SDS011;38052;45.944;13.624;2024-03-06T03:47:15;12.95;;;6.63;;
52041;SDS011;38052;45.944;13.624;2024-03-06T03:49:42;13.48;;;6.32;;
52041;SDS011;38052;45.944;13.624;2024-03-06T03:52:08;13.82;;;8.55;;
52041;SDS011;38052;45.944;13.624;2024-03-06T03:54:35;13.35;;;7.50;;
52041;SDS011;38052;45.944;13.624;2024-03-06T03:57:02;9.40;;;6.43;;
52041;SDS011;38052;45.944;13.624;2024-03-06T03:59:29;13.10;;;6.65;;
52041;SDS011;38052;45.944;13.624;2024-03-06T04:01:55;11.25;;;6.57;;
52041;SDS011;38052;45.944;13.624;2024-03-06T04:04:22;15.60;;;7.00;;
52041;SDS011;38052;45.944;13.624;2024-03-06T04:06:49;10.95;;;6.68;;
52041;SDS011;38052;45.944;13.624;2024-03-06T04:09:15;13.18;;;7.20;;
52041;SDS011;38052;45.944;13.624;2024-03-06T04:11:42;13.82;;;7.18;;
52041;SDS011;38052;45.944;13.624;2024-03-06T04:14:08;12.43;;;6.18;;
52041;SDS011;38052;45.944;13.624;2024-03-06T04:16:35;10.13;;;6.47;;
52041;SDS011;38052;45.944;13.624;2024-03-06T04:19:02;20.05;;;7.55;;
52041;SDS011;38052;45.944;13.624;2024-03-06T04:21:28;13.75;;;6.57;;
52041;SDS011;38052;45.944;13.624;2024-03-06T04:23:55;13.55;;;7.22;;
52041;SDS011;38052;45.944;13.624;2024-03-06T04:26:22;14.52;;;8.05;;
52041;SDS011;38052;45.944;13.624;2024-03-06T04:28:49;14.80;;;6.55;;
52041;SDS011;38052;45.944;13.624;2024-03-06T04:31:15;16.75;;;7.93;;
52041;SDS011;38052;45.944;13.624;2024-03-06T04:33:42;9.27;;;6.97;;
52041;SDS011;38052;45.944;13.624;2024-03-06T04:36:09;17.33;;;7.85;;
52041;SDS011;38052;45.944;13.624;2024-03-06T04:38:36;17.02;;;8.13;;
52041;SDS011;38052;45.944;13.624;2024-03-06T04:41:02;13.65;;;7.90;;
52041;SDS011;38052;45.944;13.624;2024-03-06T04:43:31;16.95;;;8.73;;
52041;SDS011;38052;45.944;13.624;2024-03-06T04:45:58;13.32;;;9.05;;
52041;SDS011;38052;45.944;13.624;2024-03-06T04:48:25;19.98;;;10.15;;
52041;SDS011;38052;45.944;13.624;2024-03-06T04:50:51;17.63;;;10.32;;
52041;SDS011;38052;45.944;13.624;2024-03-06T04:53:18;14.68;;;9.32;;
52041;SDS011;38052;45.944;13.624;2024-03-06T04:55:45;13.82;;;8.88;;
52041;SDS011;38052;45.944;13.624;2024-03-06T04:58:12;14.02;;;9.23;;
52041;SDS011;38052;45.944;13.624;2024-03-06T05:00:38;14.48;;;9.27;;
52041;SDS011;38052;45.944;13.624;2024-03-06T05:03:04;17.40;;;10.60;;
52041;SDS011;38052;45.944;13.624;2024-03-06T05:05:31;16.48;;;9.35;;
52041;SDS011;38052;45.944;13.624;2024-03-06T05:07:57;15.27;;;9.48;;
52041;SDS011;38052;45.944;13.624;2024-03-06T05:10:24;16.52;;;9.07;;
52041;SDS011;38052;45.944;13.624;2024-03-06T05:12:52;14.02;;;9.13;;
52041;SDS011;38052;45.944;13.624;2024-03-06T05:15:18;17.65;;;10.25;;
52041;SDS011;38052;45.944;13.624;2024-03-06T05:17:45;14.43;;;8.68;;
52041;SDS011;38052;45.944;13.624;2024-03-06T05:20:11;13.40;;;8.52;;
52041;SDS011;38052;45.944;13.624;2024-03-06T05:22:38;12.80;;;8.18;;
52041;SDS011;38052;45.944;13.624;2024-03-06T05:25:05;11.32;;;9.55;;
52041;SDS011;38052;45.944;13.624;2024-03-06T05:27:31;13.85;;;9.73;;
52041;SDS011;38052;45.944;13.624;2024-03-06T05:29:57;15.82;;;10.23;;
52041;SDS011;38052;45.944;13.624;2024-03-06T05:32:24;13.20;;;9.57;;
52041;SDS011;38052;45.944;13.624;2024-03-06T05:34:51;15.27;;;10.02;;
52041;SDS011;38052;45.944;13.624;2024-03-06T05:37:17;16.35;;;9.77;;
52041;SDS011;38052;45.944;13.624;2024-03-06T05:39:44;13.02;;;9.85;;
52041;SDS011;38052;45.944;13.624;2024-03-06T05:42:11;14.60;;;11.27;;
52041;SDS011;38052;45.944;13.624;2024-03-06T05:44:37;15.80;;;11.32;;
52041;SDS011;38052;45.944;13.624;2024-03-06T05:47:03;19.05;;;12.18;;
52041;SDS011;38052;45.944;13.624;2024-03-06T05:49:31;17.88;;;11.13;;
52041;SDS011;38052;45.944;13.624;2024-03-06T05:51:58;17.17;;;11.82;;
52041;SDS011;38052;45.944;13.624;2024-03-06T05:54:24;23.90;;;12.07;;
52041;SDS011;38052;45.944;13.624;2024-03-06T05:56:51;16.25;;;11.82;;
52041;SDS011;38052;45.944;13.624;2024-03-06T05:59:18;19.13;;;12.68;;
52041;SDS011;38052;45.944;13.624;2024-03-06T06:01:45;15.48;;;12.43;;
52041;SDS011;38052;45.944;13.624;2024-03-06T06:04:12;14.60;;;11.30;;
52041;SDS011;38052;45.944;13.624;2024-03-06T06:06:38;17.48;;;11.68;;
52041;SDS011;38052;45.944;13.624;2024-03-06T06:09:04;16.95;;;12.25;;
52041;SDS011;38052;45.944;13.624;2024-03-06T06:11:31;17.63;;;12.45;;
52041;SDS011;38052;45.944;13.624;2024-03-06T06:13:58;19.83;;;12.02;;
52041;SDS011;38052;45.944;13.624;2024-03-06T06:16:25;20.15;;;12.15;;
52041;SDS011;38052;45.944;13.624;2024-03-06T06:18:51;19.17;;;12.73;;
52041;SDS011;38052;45.944;13.624;2024-03-06T06:21:18;19.08;;;13.15;;
52041;SDS011;38052;45.944;13.624;2024-03-06T06:23:45;18.95;;;13.10;;
52041;SDS011;38052;45.944;13.624;2024-03-06T06:26:11;20.33;;;13.40;;
52041;SDS011;38052;45.944;13.624;2024-03-06T06:28:40;17.85;;;12.77;;
52041;SDS011;38052;45.944;13.624;2024-03-06T06:31:07;18.42;;;12.80;;
52041;SDS011;38052;45.944;13.624;2024-03-06T06:33:33;19.02;;;13.05;;
52041;SDS011;38052;45.944;13.624;2024-03-06T06:36:00;20.83;;;13.52;;
52041;SDS011;38052;45.944;13.624;2024-03-06T06:38:27;22.05;;;14.75;;
52041;SDS011;38052;45.944;13.624;2024-03-06T06:40:53;17.38;;;12.85;;
52041;SDS011;38052;45.944;13.624;2024-03-06T06:43:20;18.15;;;13.07;;
52041;SDS011;38052;45.944;13.624;2024-03-06T06:45:47;19.95;;;11.15;;
52041;SDS011;38052;45.944;13.624;2024-03-06T06:48:14;20.90;;;11.45;;
52041;SDS011;38052;45.944;13.624;2024-03-06T06:50:40;13.65;;;10.23;;
52041;SDS011;38052;45.944;13.624;2024-03-06T06:53:07;21.27;;;10.73;;
52041;SDS011;38052;45.944;13.624;2024-03-06T06:55:33;16.02;;;10.90;;
52041;SDS011;38052;45.944;13.624;2024-03-06T06:57:59;15.20;;;10.00;;
52041;SDS011;38052;45.944;13.624;2024-03-06T07:00:26;14.80;;;11.07;;
52041;SDS011;38052;45.944;13.624;2024-03-06T07:02:53;16.52;;;11.20;;
52041;SDS011;38052;45.944;13.624;2024-03-06T07:05:20;19.80;;;11.35;;
52041;SDS011;38052;45.944;13.624;2024-03-06T07:07:47;16.80;;;10.85;;
52041;SDS011;38052;45.944;13.624;2024-03-06T07:10:14;21.17;;;12.90;;
52041;SDS011;38052;45.944;13.624;2024-03-06T07:12:41;18.45;;;13.27;;
52041;SDS011;38052;45.944;13.624;2024-03-06T07:15:07;19.60;;;12.75;;
52041;SDS011;38052;45.944;13.624;2024-03-06T07:17:34;15.38;;;12.00;;
52041;SDS011;38052;45.944;13.624;2024-03-06T07:20:00;17.05;;;13.32;;
52041;SDS011;38052;45.944;13.624;2024-03-06T07:22:27;17.13;;;13.00;;
52041;SDS011;38052;45.944;13.624;2024-03-06T07:24:54;21.13;;;13.63;;
52041;SDS011;38052;45.944;13.624;2024-03-06T07:27:20;18.60;;;14.13;;
52041;SDS011;38052;45.944;13.624;2024-03-06T07:29:47;17.90;;;13.13;;
52041;SDS011;38052;45.944;13.624;2024-03-06T07:32:14;15.05;;;10.68;;
52041;SDS011;38052;45.944;13.624;2024-03-06T07:34:40;13.07;;;9.80;;
52041;SDS011;38052;45.944;13.624;2024-03-06T07:37:07;12.32;;;9.50;;
52041;SDS011;38052;45.944;13.624;2024-03-06T07:39:34;11.02;;;8.70;;
52041;SDS011;38052;45.944;13.624;2024-03-06T07:42:01;12.60;;;8.60;;
52041;SDS011;38052;45.944;13.624;2024-03-06T07:44:27;14.35;;;8.88;;
52041;SDS011;38052;45.944;13.624;2024-03-06T07:46:54;11.27;;;8.85;;
52041;SDS011;38052;45.944;13.624;2024-03-06T07:49:20;13.48;;;8.48;;
52041;SDS011;38052;45.944;13.624;2024-03-06T07:51:47;12.15;;;7.90;;
52041;SDS011;38052;45.944;13.624;2024-03-06T07:54:13;10.93;;;5.85;;
52041;SDS011;38052;45.944;13.624;2024-03-06T07:56:39;10.70;;;7.25;;
52041;SDS011;38052;45.944;13.624;2024-03-06T07:59:06;10.55;;;6.90;;
52041;SDS011;38052;45.944;13.624;2024-03-06T08:01:33;8.40;;;6.57;;
52041;SDS011;38052;45.944;13.624;2024-03-06T08:04:00;9.25;;;6.32;;
52041;SDS011;38052;45.944;13.624;2024-03-06T08:06:26;9.70;;;7.45;;
52041;SDS011;38052;45.944;13.624;2024-03-06T08:08:54;11.35;;;5.97;;
52041;SDS011;38052;45.944;13.624;2024-03-06T08:11:21;12.88;;;6.55;;
52041;SDS011;38052;45.944;13.624;2024-03-06T08:13:48;9.38;;;6.97;;
52041;SDS011;38052;45.944;13.624;2024-03-06T08:16:15;11.57;;;8.10;;
52041;SDS011;38052;45.944;13.624;2024-03-06T08:18:42;10.68;;;6.72;;
52041;SDS011;38052;45.944;13.624;2024-03-06T08:21:09;7.45;;;5.28;;
52041;SDS011;38052;45.944;13.624;2024-03-06T08:23:35;7.85;;;4.80;;
52041;SDS011;38052;45.944;13.624;2024-03-06T08:26:01;8.77;;;5.20;;
52041;SDS011;38052;45.944;13.624;2024-03-06T08:28:28;9.10;;;5.57;;
52041;SDS011;38052;45.944;13.624;2024-03-06T08:30:54;5.80;;;3.60;;
52041;SDS011;38052;45.944;13.624;2024-03-06T08:33:21;4.32;;;2.42;;
52041;SDS011;38052;45.944;13.624;2024-03-06T08:35:47;4.80;;;3.25;;
52041;SDS011;38052;45.944;13.624;2024-03-06T08:38:14;5.28;;;2.88;;
52041;SDS011;38052;45.944;13.624;2024-03-06T08:40:42;6.15;;;3.75;;
52041;SDS011;38052;45.944;13.624;2024-03-06T08:43:11;6.13;;;4.03;;
52041;SDS011;38052;45.944;13.624;2024-03-06T08:45:41;7.22;;;3.75;;
52041;SDS011;38052;45.944;13.624;2024-03-06T08:48:07;5.63;;;3.28;;
52041;SDS011;38052;45.944;13.624;2024-03-06T08:50:34;6.05;;;3.60;;
52041;SDS011;38052;45.944;13.624;2024-03-06T08:53:00;5.78;;;3.65;;
52041;SDS011;38052;45.944;13.624;2024-03-06T08:55:29;6.20;;;4.07;;
52041;SDS011;38052;45.944;13.624;2024-03-06T08:57:55;4.82;;;3.60;;
52041;SDS011;38052;45.944;13.624;2024-03-06T09:00:21;7.97;;;3.97;;
52041;SDS011;38052;45.944;13.624;2024-03-06T09:02:48;6.97;;;4.93;;
52041;SDS011;38052;45.944;13.624;2024-03-06T09:05:14;5.75;;;3.92;;
52041;SDS011;38052;45.944;13.624;2024-03-06T09:07:41;6.38;;;4.57;;
52041;SDS011;38052;45.944;13.624;2024-03-06T09:10:08;7.45;;;4.63;;
52041;SDS011;38052;45.944;13.624;2024-03-06T09:12:34;9.50;;;3.45;;
52041;SDS011;38052;45.944;13.624;2024-03-06T09:15:01;7.90;;;4.38;;
52041;SDS011;38052;45.944;13.624;2024-03-06T09:17:28;6.38;;;3.72;;
52041;SDS011;38052;45.944;13.624;2024-03-06T09:19:55;5.30;;;2.55;;
52041;SDS011;38052;45.944;13.624;2024-03-06T09:22:21;3.85;;;2.17;;
52041;SDS011;38052;45.944;13.624;2024-03-06T09:24:47;3.25;;;2.28;;
52041;SDS011;38052;45.944;13.624;2024-03-06T09:27:14;4.70;;;2.58;;
52041;SDS011;38052;45.944;13.624;2024-03-06T09:29:41;5.22;;;2.17;;
52041;SDS011;38052;45.944;13.624;2024-03-06T09:32:07;2.83;;;1.92;;
52041;SDS011;38052;45.944;13.624;2024-03-06T09:34:34;3.60;;;1.85;;
52041;SDS011;38052;45.944;13.624;2024-03-06T09:37:01;3.83;;;2.08;;
52041;SDS011;38052;45.944;13.624;2024-03-06T09:39:28;3.05;;;1.63;;
52041;SDS011;38052;45.944;13.624;2024-03-06T09:41:55;3.65;;;1.20;;
52041;SDS011;38052;45.944;13.624;2024-03-06T09:44:22;3.33;;;2.10;;
52041;SDS011;38052;45.944;13.624;2024-03-06T09:46:49;4.25;;;1.75;;
52041;SDS011;38052;45.944;13.624;2024-03-06T09:49:16;2.85;;;1.50;;
52041;SDS011;38052;45.944;13.624;2024-03-06T09:51:43;2.75;;;1.35;;
52041;SDS011;38052;45.944;13.624;2024-03-06T09:54:11;3.38;;;2.15;;
52041;SDS011;38052;45.944;13.624;2024-03-06T09:56:38;4.10;;;1.67;;
52041;SDS011;38052;45.944;13.624;2024-03-06T09:59:05;3.60;;;2.10;;
52041;SDS011;38052;45.944;13.624;2024-03-06T10:01:31;3.55;;;2.13;;
52041;SDS011;38052;45.944;13.624;2024-03-06T10:03:58;2.33;;;1.23;;
52041;SDS011;38052;45.944;13.624;2024-03-06T10:06:25;3.72;;;2.38;;
52041;SDS011;38052;45.944;13.624;2024-03-06T10:08:51;4.03;;;2.28;;
52041;SDS011;38052;45.944;13.624;2024-03-06T10:11:18;3.85;;;2.00;;
52041;SDS011;38052;45.944;13.624;2024-03-06T10:13:45;4.07;;;1.60;;
52041;SDS011;38052;45.944;13.624;2024-03-06T10:16:11;3.35;;;1.75;;
52041;SDS011;38052;45.944;13.624;2024-03-06T10:18:39;2.05;;;1.30;;
52041;SDS011;38052;45.944;13.624;2024-03-06T10:21:05;3.58;;;1.38;;
52041;SDS011;38052;45.944;13.624;2024-03-06T10:23:32;3.85;;;1.05;;
52041;SDS011;38052;45.944;13.624;2024-03-06T10:25:59;3.47;;;1.10;;
52041;SDS011;38052;45.944;13.624;2024-03-06T10:28:25;3.53;;;1.60;;
52041;SDS011;38052;45.944;13.624;2024-03-06T10:31:02;3.05;;;1.70;;
52041;SDS011;38052;45.944;13.624;2024-03-06T10:33:28;2.58;;;1.70;;
52041;SDS011;38052;45.944;13.624;2024-03-06T10:35:54;4.13;;;1.60;;
52041;SDS011;38052;45.944;13.624;2024-03-06T10:38:21;2.70;;;1.10;;
52041;SDS011;38052;45.944;13.624;2024-03-06T10:40:47;2.65;;;1.17;;
52041;SDS011;38052;45.944;13.624;2024-03-06T10:43:17;4.22;;;1.88;;
52041;SDS011;38052;45.944;13.624;2024-03-06T10:45:48;5.38;;;2.15;;
52041;SDS011;38052;45.944;13.624;2024-03-06T10:48:16;2.63;;;1.20;;
52041;SDS011;38052;45.944;13.624;2024-03-06T10:50:42;2.60;;;1.30;;
52041;SDS011;38052;45.944;13.624;2024-03-06T10:53:10;3.70;;;0.98;;
52041;SDS011;38052;45.944;13.624;2024-03-06T10:55:36;4.93;;;1.40;;
52041;SDS011;38052;45.944;13.624;2024-03-06T10:58:05;2.13;;;1.08;;
52041;SDS011;38052;45.944;13.624;2024-03-06T11:00:35;2.08;;;1.25;;
52041;SDS011;38052;45.944;13.624;2024-03-06T11:03:02;2.05;;;0.82;;
52041;SDS011;38052;45.944;13.624;2024-03-06T11:05:33;2.37;;;1.27;;
52041;SDS011;38052;45.944;13.624;2024-03-06T11:08:01;3.05;;;1.30;;
52041;SDS011;38052;45.944;13.624;2024-03-06T11:10:35;2.42;;;0.80;;
52041;SDS011;38052;45.944;13.624;2024-03-06T11:13:02;5.03;;;1.23;;
52041;SDS011;38052;45.944;13.624;2024-03-06T11:15:30;2.25;;;1.13;;
52041;SDS011;38052;45.944;13.624;2024-03-06T11:17:56;2.03;;;1.45;;
52041;SDS011;38052;45.944;13.624;2024-03-06T11:20:23;3.53;;;1.40;;
52041;SDS011;38052;45.944;13.624;2024-03-06T11:28:06;3.78;;;1.30;;
52041;SDS011;38052;45.944;13.624;2024-03-06T11:30:44;2.25;;;1.23;;
52041;SDS011;38052;45.944;13.624;2024-03-06T11:33:12;1.98;;;1.00;;
52041;SDS011;38052;45.944;13.624;2024-03-06T11:35:40;2.58;;;1.35;;
52041;SDS011;38052;45.944;13.624;2024-03-06T11:38:09;1.70;;;0.95;;
52041;SDS011;38052;45.944;13.624;2024-03-06T11:40:42;1.65;;;1.00;;
52041;SDS011;38052;45.944;13.624;2024-03-06T11:43:24;2.65;;;1.13;;
52041;SDS011;38052;45.944;13.624;2024-03-06T11:45:52;2.90;;;1.08;;
52041;SDS011;38052;45.944;13.624;2024-03-06T11:48:18;1.10;;;0.60;;
52041;SDS011;38052;45.944;13.624;2024-03-06T11:50:46;2.28;;;0.80;;
52041;SDS011;38052;45.944;13.624;2024-03-06T11:53:13;1.40;;;0.40;;
52041;SDS011;38052;45.944;13.624;2024-03-06T11:55:41;0.93;;;0.22;;
52041;SDS011;38052;45.944;13.624;2024-03-06T11:58:08;1.10;;;0.40;;
52041;SDS011;38052;45.944;13.624;2024-03-06T12:00:37;0.80;;;0.28;;
52041;SDS011;38052;45.944;13.624;2024-03-06T12:03:03;0.60;;;0.20;;
52041;SDS011;38052;45.944;13.624;2024-03-06T12:05:30;2.65;;;0.35;;
52041;SDS011;38052;45.944;13.624;2024-03-06T12:07:56;1.70;;;1.02;;
52041;SDS011;38052;45.944;13.624;2024-03-06T12:10:23;0.82;;;0.30;;
52041;SDS011;38052;45.944;13.624;2024-03-06T12:12:49;1.25;;;0.22;;
52041;SDS011;38052;45.944;13.624;2024-03-06T12:15:16;0.50;;;0.30;;
52041;SDS011;38052;45.944;13.624;2024-03-06T12:17:44;1.35;;;0.40;;
52041;SDS011;38052;45.944;13.624;2024-03-06T12:20:11;0.60;;;0.20;;
52041;SDS011;38052;45.944;13.624;2024-03-06T12:22:44;1.33;;;0.30;;
52041;SDS011;38052;45.944;13.624;2024-03-06T12:25:17;1.98;;;0.38;;
52041;SDS011;38052;45.944;13.624;2024-03-06T12:27:44;1.70;;;0.40;;
52041;SDS011;38052;45.944;13.624;2024-03-06T12:30:11;3.38;;;0.30;;
52041;SDS011;38052;45.944;13.624;2024-03-06T12:32:38;0.60;;;0.20;;
52041;SDS011;38052;45.944;13.624;2024-03-06T12:35:04;1.40;;;0.20;;
52041;SDS011;38052;45.944;13.624;2024-03-06T12:37:31;3.15;;;0.25;;
52041;SDS011;38052;45.944;13.624;2024-03-06T12:39:58;2.92;;;0.25;;
52041;SDS011;38052;45.944;13.624;2024-03-06T12:42:24;1.35;;;0.30;;
52041;SDS011;38052;45.944;13.624;2024-03-06T12:44:51;3.72;;;0.75;;
52041;SDS011;38052;45.944;13.624;2024-03-06T12:47:18;1.58;;;0.30;;
52041;SDS011;38052;45.944;13.624;2024-03-06T12:49:44;1.00;;;0.30;;
52041;SDS011;38052;45.944;13.624;2024-03-06T12:52:11;2.45;;;0.68;;
52041;SDS011;38052;45.944;13.624;2024-03-06T12:54:37;4.25;;;1.13;;
52041;SDS011;38052;45.944;13.624;2024-03-06T12:57:04;2.40;;;1.00;;
52041;SDS011;38052;45.944;13.624;2024-03-06T12:59:30;3.97;;;2.05;;
52041;SDS011;38052;45.944;13.624;2024-03-06T13:01:57;3.15;;;1.48;;
52041;SDS011;38052;45.944;13.624;2024-03-06T13:04:23;1.13;;;0.50;;
52041;SDS011;38052;45.944;13.624;2024-03-06T13:06:50;2.33;;;0.40;;
52041;SDS011;38052;45.944;13.624;2024-03-06T13:09:17;0.88;;;0.40;;
52041;SDS011;38052;45.944;13.624;2024-03-06T13:11:43;1.05;;;0.60;;
52041;SDS011;38052;45.944;13.624;2024-03-06T13:14:10;1.65;;;0.50;;
52041;SDS011;38052;45.944;13.624;2024-03-06T13:16:37;1.85;;;0.90;;
52041;SDS011;38052;45.944;13.624;2024-03-06T13:19:03;2.15;;;0.70;;
52041;SDS011;38052;45.944;13.624;2024-03-06T13:21:29;1.70;;;0.68;;
52041;SDS011;38052;45.944;13.624;2024-03-06T13:23:56;3.97;;;1.30;;
52041;SDS011;38052;45.944;13.624;2024-03-06T13:26:22;1.55;;;0.68;;
52041;SDS011;38052;45.944;13.624;2024-03-06T13:28:49;1.02;;;0.40;;
52041;SDS011;38052;45.944;13.624;2024-03-06T13:31:16;2.55;;;0.80;;
52041;SDS011;38052;45.944;13.624;2024-03-06T13:33:42;4.28;;;0.43;;
52041;SDS011;38052;45.944;13.624;2024-03-06T13:36:09;1.50;;;0.30;;
52041;SDS011;38052;45.944;13.624;2024-03-06T13:38:35;4.32;;;0.68;;
52041;SDS011;38052;45.944;13.624;2024-03-06T13:41:02;3.08;;;0.95;;
52041;SDS011;38052;45.944;13.624;2024-03-06T13:43:28;1.27;;;0.45;;
52041;SDS011;38052;45.944;13.624;2024-03-06T13:45:55;1.45;;;0.73;;
52041;SDS011;38052;45.944;13.624;2024-03-06T13:48:21;3.53;;;0.47;;
52041;SDS011;38052;45.944;13.624;2024-03-06T13:50:48;2.25;;;0.30;;
52041;SDS011;38052;45.944;13.624;2024-03-06T13:53:15;3.15;;;0.35;;
52041;SDS011;38052;45.944;13.624;2024-03-06T13:55:42;1.27;;;0.40;;
52041;SDS011;38052;45.944;13.624;2024-03-06T13:58:08;2.15;;;0.50;;
52041;SDS011;38052;45.944;13.624;2024-03-06T14:00:35;1.30;;;0.38;;
52041;SDS011;38052;45.944;13.624;2024-03-06T14:03:02;2.40;;;0.50;;
52041;SDS011;38052;45.944;13.624;2024-03-06T14:05:30;4.97;;;0.50;;
52041;SDS011;38052;45.944;13.624;2024-03-06T14:07:56;3.00;;;0.50;;
52041;SDS011;38052;45.944;13.624;2024-03-06T14:10:23;1.67;;;0.60;;
52041;SDS011;38052;45.944;13.624;2024-03-06T14:12:50;3.00;;;0.73;;
52041;SDS011;38052;45.944;13.624;2024-03-06T14:15:20;2.08;;;0.45;;
52041;SDS011;38052;45.944;13.624;2024-03-06T14:17:47;1.23;;;0.33;;
52041;SDS011;38052;45.944;13.624;2024-03-06T14:20:14;1.25;;;0.40;;
52041;SDS011;38052;45.944;13.624;2024-03-06T14:22:43;1.13;;;0.60;;
52041;SDS011;38052;45.944;13.624;2024-03-06T14:25:10;3.38;;;0.45;;
52041;SDS011;38052;45.944;13.624;2024-03-06T14:27:36;1.35;;;0.52;;
52041;SDS011;38052;45.944;13.624;2024-03-06T14:30:03;2.70;;;0.80;;